sensor_id;sensor_type;location;lat;lon;timestamp;pressure;altitude;pressure_sealevel;temperature;humidity
64064;BME280;50314;50.618;10.642;2023-05-07T00:02:21;96784.66;;;21.81;21.73
64064;BME280;50314;50.618;10.642;2023-05-07T00:04:48;96786.47;;;21.81;21.65
64064;BME280;50314;50.618;10.642;2023-05-07T00:07:14;96787.50;;;21.80;21.65
64064;BME280;50314;50.618;10.642;2023-05-07T00:09:39;96783.16;;;21.79;21.48
64064;BME280;50314;50.618;10.642;2023-05-07T00:12:05;96789.50;;;21.78;21.63
64064;BME280;50314;50.618;10.642;2023-05-07T00:14:30;96785.19;;;21.77;21.34
64064;BME280;50314;50.618;10.642;2023-05-07T00:16:56;96785.19;;;21.77;21.44
64064;BME280;50314;50.618;10.642;2023-05-07T00:19:21;96780.84;;;21.76;21.53
64064;BME280;50314;50.618;10.642;2023-05-07T00:21:47;96784.50;;;21.75;21.38
64064;BME280;50314;50.618;10.642;2023-05-07T00:24:12;96788.19;;;21.74;21.76
64064;BME280;50314;50.618;10.642;2023-05-07T00:26:38;96794.56;;;21.73;21.75
64064;BME280;50314;50.618;10.642;2023-05-07T00:29:06;96791.06;;;21.72;21.70
64064;BME280;50314;50.618;10.642;2023-05-07T00:31:31;96792.91;;;21.72;21.65
64064;BME280;50314;50.618;10.642;2023-05-07T00:33:56;96791.22;;;21.71;21.54
64064;BME280;50314;50.618;10.642;2023-05-07T00:36:22;96794.94;;;21.70;21.59
64064;BME280;50314;50.618;10.642;2023-05-07T00:38:47;96794.94;;;21.70;21.51
64064;BME280;50314;50.618;10.642;2023-05-07T00:41:13;96793.28;;;21.69;21.64
64064;BME280;50314;50.618;10.642;2023-05-07T00:43:38;96795.13;;;21.68;21.56
64064;BME280;50314;50.618;10.642;2023-05-07T00:46:04;96799.63;;;21.68;21.65
64064;BME280;50314;50.618;10.642;2023-05-07T00:48:30;96799.00;;;21.66;21.52
64064;BME280;50314;50.618;10.642;2023-05-07T00:50:56;96792.81;;;21.65;21.64
64064;BME280;50314;50.618;10.642;2023-05-07T00:53:22;96788.28;;;21.66;21.66
64064;BME280;50314;50.618;10.642;2023-05-07T00:55:47;96784.94;;;21.64;21.59
64064;BME280;50314;50.618;10.642;2023-05-07T00:58:13;96794.00;;;21.63;21.49
64064;BME280;50314;50.618;10.642;2023-05-07T01:00:39;96787.97;;;21.61;21.67
64064;BME280;50314;50.618;10.642;2023-05-07T01:03:05;96780.97;;;21.59;21.73
64064;BME280;50314;50.618;10.642;2023-05-07T01:05:30;96782.81;;;21.59;21.69
64064;BME280;50314;50.618;10.642;2023-05-07T01:07:56;96780.28;;;21.57;21.79
64064;BME280;50314;50.618;10.642;2023-05-07T01:10:22;96778.63;;;21.56;21.65
64064;BME280;50314;50.618;10.642;2023-05-07T01:12:48;96781.50;;;21.55;21.89
64064;BME280;50314;50.618;10.642;2023-05-07T01:15:15;96782.34;;;21.55;21.68
64064;BME280;50314;50.618;10.642;2023-05-07T01:17:42;96776.31;;;21.53;21.90
64064;BME280;50314;50.618;10.642;2023-05-07T01:20:08;96782.69;;;21.52;21.94
64064;BME280;50314;50.618;10.642;2023-05-07T01:22:36;96773.00;;;21.51;21.88
64064;BME280;50314;50.618;10.642;2023-05-07T01:25:04;96775.69;;;21.51;21.86
64064;BME280;50314;50.618;10.642;2023-05-07T01:27:30;96777.69;;;21.49;21.84
64064;BME280;50314;50.618;10.642;2023-05-07T01:29:55;96781.41;;;21.48;21.83
64064;BME280;50314;50.618;10.642;2023-05-07T01:32:29;96781.75;;;21.45;22.00
64064;BME280;50314;50.618;10.642;2023-05-07T01:34:58;96773.38;;;21.48;21.87
64064;BME280;50314;50.618;10.642;2023-05-07T01:37:25;96771.69;;;21.47;21.98
64064;BME280;50314;50.618;10.642;2023-05-07T01:39:52;96780.56;;;21.48;21.79
64064;BME280;50314;50.618;10.642;2023-05-07T01:42:17;96776.91;;;21.41;21.96
64064;BME280;50314;50.618;10.642;2023-05-07T01:44:43;96778.13;;;21.38;22.02
64064;BME280;50314;50.618;10.642;2023-05-07T01:47:08;96782.75;;;21.44;21.88
64064;BME280;50314;50.618;10.642;2023-05-07T01:49:34;96785.44;;;21.44;22.03
64064;BME280;50314;50.618;10.642;2023-05-07T01:52:00;96785.44;;;21.44;21.94
64064;BME280;50314;50.618;10.642;2023-05-07T01:54:26;96784.59;;;21.44;21.76
64064;BME280;50314;50.618;10.642;2023-05-07T01:56:58;96779.25;;;21.44;22.11
64064;BME280;50314;50.618;10.642;2023-05-07T01:59:24;96782.13;;;21.42;22.04
64064;BME280;50314;50.618;10.642;2023-05-07T02:01:49;96776.75;;;21.42;22.07
64064;BME280;50314;50.618;10.642;2023-05-07T02:04:14;96777.94;;;21.40;21.96
64064;BME280;50314;50.618;10.642;2023-05-07T02:06:40;96780.81;;;21.38;22.06
64064;BME280;50314;50.618;10.642;2023-05-07T02:09:05;96779.13;;;21.37;22.09
64064;BME280;50314;50.618;10.642;2023-05-07T02:11:31;96774.63;;;21.38;21.90
64064;BME280;50314;50.618;10.642;2023-05-07T02:13:56;96780.16;;;21.36;22.04
64064;BME280;50314;50.618;10.642;2023-05-07T02:16:22;96784.84;;;21.34;21.97
64064;BME280;50314;50.618;10.642;2023-05-07T02:18:48;96774.13;;;21.34;22.06
64064;BME280;50314;50.618;10.642;2023-05-07T02:21:13;96768.13;;;21.32;22.08
64064;BME280;50314;50.618;10.642;2023-05-07T02:23:39;96771.66;;;21.32;22.15
64064;BME280;50314;50.618;10.642;2023-05-07T02:26:04;96765.47;;;21.32;22.22
64064;BME280;50314;50.618;10.642;2023-05-07T02:28:30;96765.47;;;21.32;22.14
64064;BME280;50314;50.618;10.642;2023-05-07T02:30:55;96763.81;;;21.31;21.98
64064;BME280;50314;50.618;10.642;2023-05-07T02:33:23;96765.00;;;21.28;21.83
64064;BME280;50314;50.618;10.642;2023-05-07T02:35:49;96766.84;;;21.28;22.19
64064;BME280;50314;50.618;10.642;2023-05-07T02:38:14;96773.19;;;21.27;21.99
64064;BME280;50314;50.618;10.642;2023-05-07T02:40:40;96770.69;;;21.25;21.85
64064;BME280;50314;50.618;10.642;2023-05-07T02:43:05;96771.38;;;21.27;22.02
64064;BME280;50314;50.618;10.642;2023-05-07T02:45:32;96771.53;;;21.26;22.01
64064;BME280;50314;50.618;10.642;2023-05-07T02:47:58;96774.88;;;21.28;21.93
64064;BME280;50314;50.618;10.642;2023-05-07T02:50:23;96777.72;;;21.26;22.22
64064;BME280;50314;50.618;10.642;2023-05-07T02:52:49;96771.88;;;21.23;22.16
64064;BME280;50314;50.618;10.642;2023-05-07T02:55:15;96770.03;;;21.23;22.22
64064;BME280;50314;50.618;10.642;2023-05-07T02:57:40;96770.22;;;21.22;22.09
64064;BME280;50314;50.618;10.642;2023-05-07T03:02:38;96757.19;;;21.19;22.18
64064;BME280;50314;50.618;10.642;2023-05-07T03:05:04;96759.03;;;21.18;22.21
64064;BME280;50314;50.618;10.642;2023-05-07T03:07:30;96758.19;;;21.18;22.32
64064;BME280;50314;50.618;10.642;2023-05-07T03:09:55;96750.31;;;21.16;22.16
64064;BME280;50314;50.618;10.642;2023-05-07T03:12:20;96754.84;;;21.16;22.27
64064;BME280;50314;50.618;10.642;2023-05-07T03:14:46;96751.34;;;21.15;22.42
64064;BME280;50314;50.618;10.642;2023-05-07T03:17:11;96763.06;;;21.14;22.26
64064;BME280;50314;50.618;10.642;2023-05-07T03:19:37;96763.88;;;21.15;22.12
64064;BME280;50314;50.618;10.642;2023-05-07T03:22:02;96760.38;;;21.14;22.24
64064;BME280;50314;50.618;10.642;2023-05-07T03:24:27;96763.88;;;21.15;22.17
64064;BME280;50314;50.618;10.642;2023-05-07T03:26:53;96756.03;;;21.13;22.20
64064;BME280;50314;50.618;10.642;2023-05-07T03:29:18;96755.19;;;21.12;22.10
64064;BME280;50314;50.618;10.642;2023-05-07T03:31:44;96760.91;;;21.09;22.19
64064;BME280;50314;50.618;10.642;2023-05-07T03:34:10;96762.59;;;21.10;22.29
64064;BME280;50314;50.618;10.642;2023-05-07T03:36:35;96761.09;;;21.08;22.40
64064;BME280;50314;50.618;10.642;2023-05-07T03:39:01;96772.63;;;21.08;22.32
64064;BME280;50314;50.618;10.642;2023-05-07T03:41:26;96771.97;;;21.06;22.18
64064;BME280;50314;50.618;10.642;2023-05-07T03:43:52;96773.81;;;21.06;22.36
64064;BME280;50314;50.618;10.642;2023-05-07T03:46:17;96775.66;;;21.05;22.34
64064;BME280;50314;50.618;10.642;2023-05-07T03:48:42;96775.84;;;21.04;22.41
64064;BME280;50314;50.618;10.642;2023-05-07T03:51:08;96770.66;;;21.02;22.42
64064;BME280;50314;50.618;10.642;2023-05-07T03:53:33;96785.91;;;21.02;22.32
64064;BME280;50314;50.618;10.642;2023-05-07T03:55:59;96779.72;;;21.01;22.31
64064;BME280;50314;50.618;10.642;2023-05-07T03:58:24;96793.94;;;21.02;22.39
64064;BME280;50314;50.618;10.642;2023-05-07T04:00:49;96791.25;;;21.02;22.45
64064;BME280;50314;50.618;10.642;2023-05-07T04:03:15;96794.09;;;21.00;22.31
64064;BME280;50314;50.618;10.642;2023-05-07T04:05:40;96795.78;;;21.01;22.43
64064;BME280;50314;50.618;10.642;2023-05-07T04:08:08;96799.44;;;21.00;22.49
64064;BME280;50314;50.618;10.642;2023-05-07T04:10:33;96796.75;;;21.00;22.42
64064;BME280;50314;50.618;10.642;2023-05-07T04:12:59;96796.13;;;20.98;22.43
64064;BME280;50314;50.618;10.642;2023-05-07T04:15:24;96801.28;;;21.00;22.40
64064;BME280;50314;50.618;10.642;2023-05-07T04:17:50;96803.16;;;20.99;22.44
64064;BME280;50314;50.618;10.642;2023-05-07T04:20:16;96800.47;;;20.99;22.38
64064;BME280;50314;50.618;10.642;2023-05-07T04:22:42;96803.50;;;20.96;22.36
64064;BME280;50314;50.618;10.642;2023-05-07T04:25:08;96798.97;;;20.97;22.48
64064;BME280;50314;50.618;10.642;2023-05-07T04:27:37;96799.97;;;20.96;22.48
64064;BME280;50314;50.618;10.642;2023-05-07T04:30:03;96800.19;;;20.94;22.48
64064;BME280;50314;50.618;10.642;2023-05-07T04:32:29;96799.97;;;20.96;22.41
64064;BME280;50314;50.618;10.642;2023-05-07T04:34:56;96811.53;;;20.96;22.47
64064;BME280;50314;50.618;10.642;2023-05-07T04:37:21;96802.66;;;20.96;22.45
64064;BME280;50314;50.618;10.642;2023-05-07T04:39:47;96798.97;;;20.97;22.52
64064;BME280;50314;50.618;10.642;2023-05-07T04:42:16;96800.81;;;20.96;22.55
64064;BME280;50314;50.618;10.642;2023-05-07T04:44:44;96805.19;;;20.97;22.52
64064;BME280;50314;50.618;10.642;2023-05-07T04:47:09;96809.88;;;20.95;22.38
64064;BME280;50314;50.618;10.642;2023-05-07T04:49:35;96818.72;;;20.96;22.45
64064;BME280;50314;50.618;10.642;2023-05-07T04:52:00;96814.19;;;20.96;22.54
64064;BME280;50314;50.618;10.642;2023-05-07T04:54:26;96815.22;;;20.95;22.42
64064;BME280;50314;50.618;10.642;2023-05-07T04:56:51;96809.88;;;20.95;22.47
64064;BME280;50314;50.618;10.642;2023-05-07T04:59:17;96814.19;;;20.96;22.43
64064;BME280;50314;50.618;10.642;2023-05-07T05:01:42;96816.03;;;20.96;22.70
64064;BME280;50314;50.618;10.642;2023-05-07T05:04:08;96818.91;;;20.94;22.39
64064;BME280;50314;50.618;10.642;2023-05-07T05:06:33;96816.25;;;20.94;22.44
64064;BME280;50314;50.618;10.642;2023-05-07T05:08:59;96819.91;;;20.93;22.52
64064;BME280;50314;50.618;10.642;2023-05-07T05:11:24;96817.06;;;20.95;22.54
64064;BME280;50314;50.618;10.642;2023-05-07T05:13:50;96821.59;;;20.94;22.66
64064;BME280;50314;50.618;10.642;2023-05-07T05:16:15;96821.59;;;20.94;22.40
64064;BME280;50314;50.618;10.642;2023-05-07T05:18:41;96817.06;;;20.95;22.56
64064;BME280;50314;50.618;10.642;2023-05-07T05:21:06;96812.53;;;20.95;22.60
64064;BME280;50314;50.618;10.642;2023-05-07T05:23:32;96812.34;;;20.97;22.74
64064;BME280;50314;50.618;10.642;2023-05-07T05:25:58;96812.19;;;20.98;22.61
64064;BME280;50314;50.618;10.642;2023-05-07T05:28:23;96826.22;;;21.00;22.43
64064;BME280;50314;50.618;10.642;2023-05-07T05:30:49;96820.69;;;21.02;22.74
64064;BME280;50314;50.618;10.642;2023-05-07T05:33:15;96816.84;;;21.04;22.88
64064;BME280;50314;50.618;10.642;2023-05-07T05:35:41;96823.88;;;21.05;22.71
64064;BME280;50314;50.618;10.642;2023-05-07T05:38:06;96822.84;;;21.06;22.65
64064;BME280;50314;50.618;10.642;2023-05-07T05:40:31;96828.88;;;21.08;22.67
64064;BME280;50314;50.618;10.642;2023-05-07T05:42:58;96825.16;;;21.09;22.78
64064;BME280;50314;50.618;10.642;2023-05-07T05:45:24;96831.19;;;21.11;22.77
64064;BME280;50314;50.618;10.642;2023-05-07T05:47:49;96822.97;;;21.13;22.75
64064;BME280;50314;50.618;10.642;2023-05-07T05:50:15;96826.31;;;21.15;22.62
64064;BME280;50314;50.618;10.642;2023-05-07T05:52:40;96825.28;;;21.16;22.85
64064;BME280;50314;50.618;10.642;2023-05-07T05:55:06;96826.00;;;21.18;22.86
64064;BME280;50314;50.618;10.642;2023-05-07T05:57:32;96822.13;;;21.21;22.77
64064;BME280;50314;50.618;10.642;2023-05-07T05:59:57;96835.81;;;21.26;22.74
64064;BME280;50314;50.618;10.642;2023-05-07T06:02:24;96831.75;;;21.30;22.73
64064;BME280;50314;50.618;10.642;2023-05-07T06:04:49;96827.91;;;21.32;22.72
64064;BME280;50314;50.618;10.642;2023-05-07T06:07:15;96830.88;;;21.38;22.85
64064;BME280;50314;50.618;10.642;2023-05-07T06:09:40;96839.22;;;21.43;22.47
64064;BME280;50314;50.618;10.642;2023-05-07T06:12:06;96834.50;;;21.45;22.63
64064;BME280;50314;50.618;10.642;2023-05-07T06:14:31;96839.69;;;21.46;22.61
64064;BME280;50314;50.618;10.642;2023-05-07T06:16:57;96835.81;;;21.49;22.50
64064;BME280;50314;50.618;10.642;2023-05-07T06:19:22;96838.31;;;21.50;22.36
64064;BME280;50314;50.618;10.642;2023-05-07T06:21:49;96836.28;;;21.52;22.45
64064;BME280;50314;50.618;10.642;2023-05-07T06:24:15;96845.00;;;21.54;22.33
64064;BME280;50314;50.618;10.642;2023-05-07T06:26:40;96845.63;;;21.56;22.50
64064;BME280;50314;50.618;10.642;2023-05-07T06:29:06;96852.66;;;21.57;22.48
64064;BME280;50314;50.618;10.642;2023-05-07T06:31:31;96849.81;;;21.59;22.51
64064;BME280;50314;50.618;10.642;2023-05-07T06:33:57;96861.34;;;21.59;22.64
64064;BME280;50314;50.618;10.642;2023-05-07T06:36:24;96863.84;;;21.61;22.50
64064;BME280;50314;50.618;10.642;2023-05-07T06:38:49;96867.19;;;21.63;22.40
64064;BME280;50314;50.618;10.642;2023-05-07T06:41:14;96870.69;;;21.64;22.31
64064;BME280;50314;50.618;10.642;2023-05-07T06:43:40;96872.38;;;21.65;22.39
64064;BME280;50314;50.618;10.642;2023-05-07T06:46:05;96879.41;;;21.66;22.63
64064;BME280;50314;50.618;10.642;2023-05-07T06:48:31;96886.41;;;21.67;22.34
64064;BME280;50314;50.618;10.642;2023-05-07T06:50:56;96884.41;;;21.69;22.37
64064;BME280;50314;50.618;10.642;2023-05-07T06:53:23;96887.09;;;21.69;22.35
64064;BME280;50314;50.618;10.642;2023-05-07T06:55:49;96886.06;;;21.70;22.18
64064;BME280;50314;50.618;10.642;2023-05-07T06:58:14;96886.72;;;21.72;22.45
64064;BME280;50314;50.618;10.642;2023-05-07T07:00:40;96879.53;;;21.72;22.19
64064;BME280;50314;50.618;10.642;2023-05-07T07:03:06;96882.00;;;21.74;22.41
64064;BME280;50314;50.618;10.642;2023-05-07T07:05:32;96871.28;;;21.74;22.28
64064;BME280;50314;50.618;10.642;2023-05-07T07:07:57;96870.97;;;21.77;22.20
64064;BME280;50314;50.618;10.642;2023-05-07T07:10:23;96869.78;;;21.79;22.34
64064;BME280;50314;50.618;10.642;2023-05-07T07:12:49;96868.38;;;21.84;22.03
64064;BME280;50314;50.618;10.642;2023-05-07T07:15:14;96865.34;;;21.87;22.17
64064;BME280;50314;50.618;10.642;2023-05-07T07:17:40;96864.78;;;21.91;22.19
64064;BME280;50314;50.618;10.642;2023-05-07T07:20:06;96871.50;;;21.95;22.22
64064;BME280;50314;50.618;10.642;2023-05-07T07:22:32;96870.09;;;21.99;22.11
64064;BME280;50314;50.618;10.642;2023-05-07T07:24:57;96883.16;;;22.02;22.27
64064;BME280;50314;50.618;10.642;2023-05-07T07:27:23;96885.47;;;22.05;22.11
64064;BME280;50314;50.618;10.642;2023-05-07T07:29:49;96886.78;;;22.10;22.05
64064;BME280;50314;50.618;10.642;2023-05-07T07:32:14;96886.03;;;22.16;22.24
64064;BME280;50314;50.618;10.642;2023-05-07T07:34:40;96886.31;;;22.21;22.05
64064;BME280;50314;50.618;10.642;2023-05-07T07:37:05;96885.78;;;22.25;22.23
64064;BME280;50314;50.618;10.642;2023-05-07T07:39:34;96889.75;;;22.29;22.17
64064;BME280;50314;50.618;10.642;2023-05-07T07:42:00;96885.53;;;22.35;21.93
64064;BME280;50314;50.618;10.642;2023-05-07T07:44:27;96888.50;;;22.40;22.17
64064;BME280;50314;50.618;10.642;2023-05-07T07:46:53;96886.94;;;22.46;21.91
64064;BME280;50314;50.618;10.642;2023-05-07T07:49:18;96890.72;;;22.51;21.81
64064;BME280;50314;50.618;10.642;2023-05-07T07:51:44;96888.13;;;22.58;21.95
64064;BME280;50314;50.618;10.642;2023-05-07T07:54:09;96890.91;;;22.65;22.03
64064;BME280;50314;50.618;10.642;2023-05-07T07:56:35;96891.66;;;22.73;22.42
64064;BME280;50314;50.618;10.642;2023-05-07T07:59:01;96891.75;;;22.80;22.31
64064;BME280;50314;50.618;10.642;2023-05-07T08:01:26;96886.47;;;22.87;21.72
64064;BME280;50314;50.618;10.642;2023-05-07T08:03:52;96895.47;;;22.94;22.04
64064;BME280;50314;50.618;10.642;2023-05-07T08:06:18;96886.84;;;22.98;22.07
64064;BME280;50314;50.618;10.642;2023-05-07T08:08:43;96891.47;;;23.05;21.66
64064;BME280;50314;50.618;10.642;2023-05-07T08:11:09;96890.50;;;23.12;22.03
64064;BME280;50314;50.618;10.642;2023-05-07T08:13:35;96888.94;;;23.18;21.97
64064;BME280;50314;50.618;10.642;2023-05-07T08:16:01;96887.16;;;23.25;20.79
64064;BME280;50314;50.618;10.642;2023-05-07T08:18:26;96890.28;;;23.29;20.38
64064;BME280;50314;50.618;10.642;2023-05-07T08:20:54;96885.75;;;23.29;19.73
64064;BME280;50314;50.618;10.642;2023-05-07T08:23:19;96877.69;;;23.29;20.06
64064;BME280;50314;50.618;10.642;2023-05-07T08:25:45;96886.41;;;23.31;19.57
64064;BME280;50314;50.618;10.642;2023-05-07T08:28:11;96886.47;;;23.38;19.60
64064;BME280;50314;50.618;10.642;2023-05-07T08:30:36;96879.34;;;23.45;19.04
64064;BME280;50314;50.618;10.642;2023-05-07T08:33:02;96880.16;;;23.45;19.18
64064;BME280;50314;50.618;10.642;2023-05-07T08:35:27;96888.44;;;23.44;18.81
64064;BME280;50314;50.618;10.642;2023-05-07T08:37:53;96893.34;;;23.40;19.44
64064;BME280;50314;50.618;10.642;2023-05-07T08:40:18;96890.81;;;23.39;19.25
64064;BME280;50314;50.618;10.642;2023-05-07T08:42:44;96899.63;;;23.33;19.15
64064;BME280;50314;50.618;10.642;2023-05-07T08:45:11;96901.25;;;23.27;19.10
64064;BME280;50314;50.618;10.642;2023-05-07T08:47:44;96905.06;;;23.18;19.39
64064;BME280;50314;50.618;10.642;2023-05-07T08:50:12;96900.72;;;23.17;19.00
64064;BME280;50314;50.618;10.642;2023-05-07T08:52:37;96902.75;;;23.15;19.68
64064;BME280;50314;50.618;10.642;2023-05-07T08:55:04;96905.25;;;23.16;19.65
64064;BME280;50314;50.618;10.642;2023-05-07T08:57:30;96899.03;;;23.16;19.41
64064;BME280;50314;50.618;10.642;2023-05-07T08:59:55;96896.16;;;23.17;19.41
64064;BME280;50314;50.618;10.642;2023-05-07T09:02:21;96902.38;;;23.18;19.81
64064;BME280;50314;50.618;10.642;2023-05-07T09:04:46;96897.81;;;23.18;19.73
64064;BME280;50314;50.618;10.642;2023-05-07T09:07:12;96904.03;;;23.19;19.62
64064;BME280;50314;50.618;10.642;2023-05-07T09:09:37;96898.03;;;23.17;19.34
64064;BME280;50314;50.618;10.642;2023-05-07T09:12:03;96901.53;;;23.17;19.28
64064;BME280;50314;50.618;10.642;2023-05-07T09:14:29;96905.44;;;23.15;19.55
64064;BME280;50314;50.618;10.642;2023-05-07T09:16:56;96906.09;;;23.17;19.16
64064;BME280;50314;50.618;10.642;2023-05-07T09:19:25;96904.78;;;23.13;19.61
64064;BME280;50314;50.618;10.642;2023-05-07T09:22:01;96914.88;;;23.11;19.20
64064;BME280;50314;50.618;10.642;2023-05-07T09:24:28;96908.50;;;23.12;19.60
64064;BME280;50314;50.618;10.642;2023-05-07T09:26:57;96901.84;;;23.08;19.18
64064;BME280;50314;50.618;10.642;2023-05-07T09:29:23;96899.31;;;23.06;19.07
64064;BME280;50314;50.618;10.642;2023-05-07T09:31:48;96900.19;;;23.07;19.18
64064;BME280;50314;50.618;10.642;2023-05-07T09:34:14;96900.34;;;23.05;19.36
64064;BME280;50314;50.618;10.642;2023-05-07T09:36:39;96902.22;;;23.05;19.26
64064;BME280;50314;50.618;10.642;2023-05-07T09:39:05;96907.13;;;23.01;19.33
64064;BME280;50314;50.618;10.642;2023-05-07T09:41:31;96904.63;;;23.00;18.84
64064;BME280;50314;50.618;10.642;2023-05-07T09:43:57;96900.25;;;22.98;19.14
64064;BME280;50314;50.618;10.642;2023-05-07T09:46:30;96891.75;;;22.95;19.01
64064;BME280;50314;50.618;10.642;2023-05-07T09:48:57;96893.25;;;22.97;19.42
64064;BME280;50314;50.618;10.642;2023-05-07T09:51:35;96899.19;;;22.93;19.31
64064;BME280;50314;50.618;10.642;2023-05-07T09:54:03;96903.91;;;22.91;19.16
64064;BME280;50314;50.618;10.642;2023-05-07T09:56:30;96899.63;;;22.96;18.99
64064;BME280;50314;50.618;10.642;2023-05-07T09:59:01;96887.22;;;22.95;19.59
64064;BME280;50314;50.618;10.642;2023-05-07T10:01:29;96891.59;;;22.96;19.21
64064;BME280;50314;50.618;10.642;2023-05-07T10:03:56;96896.97;;;22.96;19.01
64064;BME280;50314;50.618;10.642;2023-05-07T10:06:25;96899.19;;;22.93;19.00
64064;BME280;50314;50.618;10.642;2023-05-07T10:08:51;96895.63;;;22.92;19.36
64064;BME280;50314;50.618;10.642;2023-05-07T10:11:17;96895.84;;;22.91;19.38
64064;BME280;50314;50.618;10.642;2023-05-07T10:13:43;96899.56;;;22.90;19.54
64064;BME280;50314;50.618;10.642;2023-05-07T10:16:08;96891.50;;;22.90;19.33
64064;BME280;50314;50.618;10.642;2023-05-07T10:18:34;96893.31;;;22.89;19.03
64064;BME280;50314;50.618;10.642;2023-05-07T10:21:20;96899.44;;;22.83;19.38
64064;BME280;50314;50.618;10.642;2023-05-07T10:23:49;96900.81;;;22.79;18.93
64064;BME280;50314;50.618;10.642;2023-05-07T10:26:15;96900.44;;;22.82;18.92
64064;BME280;50314;50.618;10.642;2023-05-07T10:28:45;96897.50;;;22.77;19.08
64064;BME280;50314;50.618;10.642;2023-05-07T10:33:45;96899.34;;;22.77;18.71
64064;BME280;50314;50.618;10.642;2023-05-07T10:36:12;96897.66;;;22.75;18.92
64064;BME280;50314;50.618;10.642;2023-05-07T10:38:37;96888.78;;;22.75;18.91
64064;BME280;50314;50.618;10.642;2023-05-07T10:41:05;96894.34;;;22.73;19.33
64064;BME280;50314;50.618;10.642;2023-05-07T10:43:41;96889.72;;;22.67;19.17
64064;BME280;50314;50.618;10.642;2023-05-07T10:51:26;96895.91;;;22.68;19.04
64064;BME280;50314;50.618;10.642;2023-05-07T10:56:37;96901.47;;;22.66;19.29
64064;BME280;50314;50.618;10.642;2023-05-07T11:04:23;96886.81;;;22.69;19.57
64064;BME280;50314;50.618;10.642;2023-05-07T11:09:58;96884.16;;;22.69;19.58
64064;BME280;50314;50.618;10.642;2023-05-07T11:15:08;96894.44;;;22.80;19.70
64064;BME280;50314;50.618;10.642;2023-05-07T11:17:35;96883.31;;;22.83;19.27
64064;BME280;50314;50.618;10.642;2023-05-07T11:20:20;96884.97;;;22.84;19.69
64064;BME280;50314;50.618;10.642;2023-05-07T11:22:46;96873.91;;;22.87;19.25
64064;BME280;50314;50.618;10.642;2023-05-07T11:25:17;96879.28;;;22.87;19.93
64064;BME280;50314;50.618;10.642;2023-05-07T11:27:43;96875.19;;;22.91;19.36
64064;BME280;50314;50.618;10.642;2023-05-07T11:30:10;96873.16;;;22.93;19.33
64064;BME280;50314;50.618;10.642;2023-05-07T11:32:36;96871.75;;;22.97;19.36
64064;BME280;50314;50.618;10.642;2023-05-07T11:35:02;96878.41;;;23.02;19.41
64064;BME280;50314;50.618;10.642;2023-05-07T11:37:28;96879.06;;;23.04;19.27
64064;BME280;50314;50.618;10.642;2023-05-07T11:40:05;96882.75;;;23.03;19.44
64064;BME280;50314;50.618;10.642;2023-05-07T11:42:36;96879.16;;;23.10;19.43
64064;BME280;50314;50.618;10.642;2023-05-07T11:45:03;96878.41;;;23.16;19.25
64064;BME280;50314;50.618;10.642;2023-05-07T11:47:32;96883.78;;;23.16;19.69
64064;BME280;50314;50.618;10.642;2023-05-07T11:50:06;96886.44;;;23.16;19.31
64064;BME280;50314;50.618;10.642;2023-05-07T11:52:33;96888.94;;;23.18;19.09
64064;BME280;50314;50.618;10.642;2023-05-07T11:54:59;96885.34;;;23.11;19.63
64064;BME280;50314;50.618;10.642;2023-05-07T11:57:28;96879.22;;;23.17;19.58
64064;BME280;50314;50.618;10.642;2023-05-07T11:59:55;96883.56;;;23.18;19.09
64064;BME280;50314;50.618;10.642;2023-05-07T12:02:21;96883.78;;;23.16;19.40
64064;BME280;50314;50.618;10.642;2023-05-07T12:04:46;96880.06;;;23.17;19.03
64064;BME280;50314;50.618;10.642;2023-05-07T12:07:13;96885.41;;;23.17;19.40
64064;BME280;50314;50.618;10.642;2023-05-07T12:09:42;96883.56;;;23.18;19.16
64064;BME280;50314;50.618;10.642;2023-05-07T12:12:08;96889.97;;;23.17;19.00
64064;BME280;50314;50.618;10.642;2023-05-07T12:14:43;96880.81;;;23.11;19.56
64064;BME280;50314;50.618;10.642;2023-05-07T12:17:10;96881.09;;;23.16;19.29
64064;BME280;50314;50.618;10.642;2023-05-07T12:19:37;96884.59;;;23.17;19.59
64064;BME280;50314;50.618;10.642;2023-05-07T12:22:04;96887.06;;;23.18;19.19
64064;BME280;50314;50.618;10.642;2023-05-07T12:24:46;96886.63;;;23.15;19.71
64064;BME280;50314;50.618;10.642;2023-05-07T12:27:12;96883.56;;;23.18;19.52
64064;BME280;50314;50.618;10.642;2023-05-07T12:29:38;96882.53;;;23.19;19.10
64064;BME280;50314;50.618;10.642;2023-05-07T12:32:06;96888.94;;;23.18;18.90
64064;BME280;50314;50.618;10.642;2023-05-07T12:34:32;96882.91;;;23.16;19.13
64064;BME280;50314;50.618;10.642;2023-05-07T12:37:01;96884.31;;;23.12;19.26
64064;BME280;50314;50.618;10.642;2023-05-07T12:39:28;96877.09;;;23.12;19.81
64064;BME280;50314;50.618;10.642;2023-05-07T12:41:55;96880.81;;;23.11;19.78
64064;BME280;50314;50.618;10.642;2023-05-07T12:44:29;96877.00;;;23.06;20.06
64064;BME280;50314;50.618;10.642;2023-05-07T12:46:55;96881.38;;;23.07;19.82
64064;BME280;50314;50.618;10.642;2023-05-07T12:49:20;96878.69;;;23.07;19.35
64064;BME280;50314;50.618;10.642;2023-05-07T12:51:47;96879.69;;;23.06;19.51
64064;BME280;50314;50.618;10.642;2023-05-07T12:54:14;96876.19;;;23.05;19.64
64064;BME280;50314;50.618;10.642;2023-05-07T12:56:39;96884.44;;;23.04;19.18
64064;BME280;50314;50.618;10.642;2023-05-07T12:59:05;96881.91;;;23.02;19.56
64064;BME280;50314;50.618;10.642;2023-05-07T13:01:30;96876.75;;;23.01;18.99
64064;BME280;50314;50.618;10.642;2023-05-07T13:04:00;96887.88;;;22.97;19.19
64064;BME280;50314;50.618;10.642;2023-05-07T13:06:26;96887.03;;;22.97;19.31
64064;BME280;50314;50.618;10.642;2023-05-07T13:08:51;96883.69;;;22.95;19.02
64064;BME280;50314;50.618;10.642;2023-05-07T13:11:17;96880.56;;;22.91;19.23